createdAt,value
2022-11-15T00:00:43.734Z,100683.04
2022-11-15T00:03:36.188Z,100681.58
2022-11-15T00:06:27.002Z,100679.98
2022-11-15T00:09:17.529Z,100676.02
2022-11-15T00:12:09.330Z,100671.88
2022-11-15T00:15:00.325Z,100673.31
2022-11-15T00:17:53.673Z,100678.91
2022-11-15T00:20:44.204Z,100669.19
2022-11-15T00:23:34.704Z,100664.70
2022-11-15T00:26:25.530Z,100665.05
2022-11-15T00:29:15.640Z,100660.77
2022-11-15T00:32:06.205Z,100658.80
2022-11-15T00:34:56.992Z,100655.57
2022-11-15T00:37:48.659Z,100654.88
2022-11-15T00:40:40.785Z,100653.95
2022-11-15T00:43:31.605Z,100659.02
2022-11-15T00:46:22.666Z,100658.09
2022-11-15T00:49:13.742Z,100655.59
2022-11-15T00:52:05.896Z,100651.79
2022-11-15T00:54:58.318Z,100655.23
2022-11-15T00:57:50.258Z,100653.04
2022-11-15T01:00:40.978Z,100657.69
2022-11-15T01:03:36.415Z,100654.48
2022-11-15T01:06:27.851Z,100654.46
2022-11-15T01:09:19.121Z,100650.50
2022-11-15T01:12:10.357Z,100649.80
2022-11-15T01:15:01.917Z,100643.21
2022-11-15T01:17:52.757Z,100636.73
2022-11-15T01:20:45.436Z,100627.04
2022-11-15T01:23:36.751Z,100625.60
2022-11-15T01:26:28.459Z,100622.55
2022-11-15T01:29:20.830Z,100620.56
2022-11-15T01:32:13.805Z,100618.60
2022-11-15T01:35:05.960Z,100613.20
2022-11-15T01:37:58.240Z,100614.79
2022-11-15T01:40:49.490Z,100611.54
2022-11-15T01:43:42.077Z,100609.45
2022-11-15T01:46:36.243Z,100606.02
2022-11-15T01:49:29.254Z,100608.52
2022-11-15T01:52:24.743Z,100600.65
2022-11-15T01:55:21.588Z,100595.25
2022-11-15T01:58:12.660Z,100592.39
2022-11-15T02:01:03.399Z,100587.02
2022-11-15T02:03:59.237Z,100587.61
2022-11-15T02:06:51.941Z,100587.93
2022-11-15T02:09:45.223Z,100582.21
2022-11-15T02:12:37.188Z,100582.38
2022-11-15T02:15:36.605Z,100584.00
2022-11-15T02:18:34.957Z,100580.95
2022-11-15T02:21:38.345Z,100577.56
2022-11-15T02:24:55.382Z,100578.77
2022-11-15T02:28:13.202Z,100580.77
2022-11-15T02:31:13.604Z,100576.27
2022-11-15T02:34:14.014Z,100573.61
2022-11-15T02:37:12.651Z,100574.84
2022-11-15T02:40:14.779Z,100572.00
2022-11-15T02:43:28.111Z,100573.09
2022-11-15T02:46:44.471Z,100571.72
2022-11-15T02:49:38.570Z,100566.86
2022-11-15T02:52:29.743Z,100560.96
2022-11-15T02:55:43.805Z,100559.11
2022-11-15T02:58:57.596Z,100563.80
2022-11-15T03:01:54.327Z,100556.60
2022-11-15T03:04:53.611Z,100549.25
2022-11-15T03:07:58.109Z,100544.83
2022-11-15T03:11:02.937Z,100548.65
2022-11-15T03:14:00.014Z,100548.05
2022-11-15T03:16:58.683Z,100546.40
2022-11-15T03:19:52.937Z,100542.66
2022-11-15T03:22:46.753Z,100538.92
2022-11-15T03:25:41.025Z,100534.99
2022-11-15T03:28:36.013Z,100530.91
2022-11-15T03:31:50.512Z,100525.00
2022-11-15T03:34:47.191Z,100525.53
2022-11-15T03:37:44.715Z,100534.11
2022-11-15T03:40:41.771Z,100525.02
2022-11-15T03:43:41.711Z,100521.05
2022-11-15T03:46:40.077Z,100520.71
2022-11-15T03:49:35.190Z,100526.45
2022-11-15T03:52:27.121Z,100519.47
2022-11-15T03:55:20.879Z,100521.97
2022-11-15T03:58:12.201Z,100520.90
2022-11-15T04:01:03.384Z,100524.86
2022-11-15T04:03:54.709Z,100522.86
2022-11-15T04:06:46.863Z,100525.20
2022-11-15T04:09:59.413Z,100528.25
2022-11-15T04:12:50.515Z,100521.45
2022-11-15T04:15:41.610Z,100523.41
2022-11-15T04:18:33.617Z,100519.86
2022-11-15T04:21:41.838Z,100508.02
2022-11-15T04:24:33.434Z,100505.49
2022-11-15T04:27:24.757Z,100510.17
2022-11-15T04:30:17.922Z,100506.75
2022-11-15T04:33:09.699Z,100505.13
2022-11-15T04:36:19.004Z,100507.47
2022-11-15T04:39:09.701Z,100510.70
2022-11-15T04:42:01.781Z,100503.00
2022-11-15T04:44:52.542Z,100504.79
2022-11-15T04:47:44.904Z,100509.43
2022-11-15T04:50:35.968Z,100512.48
2022-11-15T04:53:26.935Z,100508.90
2022-11-15T04:56:17.303Z,100502.45
2022-11-15T04:59:09.383Z,100500.61
2022-11-15T05:01:59.834Z,100493.48
2022-11-15T05:04:50.891Z,100491.30
2022-11-15T05:07:41.882Z,100493.65
2022-11-15T05:10:32.476Z,100492.92
2022-11-15T05:13:23.317Z,100488.83
2022-11-15T05:16:14.887Z,100478.23
2022-11-15T05:19:06.169Z,100477.15
2022-11-15T05:21:56.533Z,100475.52
2022-11-15T05:24:47.259Z,100477.32
2022-11-15T05:27:37.927Z,100481.83
2022-11-15T05:30:28.387Z,100481.12
2022-11-15T05:33:19.160Z,100477.33
2022-11-15T05:36:15.633Z,100472.14
2022-11-15T05:39:09.360Z,100464.65
2022-11-15T05:42:07.109Z,100472.00
2022-11-15T05:44:59.227Z,100478.98
2022-11-15T05:47:50.764Z,100480.94
2022-11-15T05:50:44.473Z,100484.68
2022-11-15T05:53:35.413Z,100485.60
2022-11-15T05:56:25.905Z,100487.38
2022-11-15T05:59:16.750Z,100484.52
2022-11-15T06:02:07.172Z,100482.37
2022-11-15T06:04:57.588Z,100478.96
2022-11-15T06:07:47.890Z,100480.07
2022-11-15T06:10:38.425Z,100485.42
2022-11-15T06:13:28.851Z,100488.46
2022-11-15T06:16:19.497Z,100486.00
2022-11-15T06:19:11.299Z,100484.16
2022-11-15T06:22:03.525Z,100485.78
2022-11-15T06:24:53.951Z,100490.95
2022-11-15T06:27:44.732Z,100480.05
2022-11-15T06:30:35.217Z,100483.98
2022-11-15T06:33:25.603Z,100482.91
2022-11-15T06:36:18.165Z,100485.78
2022-11-15T06:39:09.364Z,100491.16
2022-11-15T06:41:59.674Z,100489.55
2022-11-15T06:44:49.734Z,100494.73
2022-11-15T06:47:48.779Z,100496.35
2022-11-15T06:50:38.851Z,100491.20
2022-11-15T06:53:30.365Z,100495.86
2022-11-15T06:56:21.229Z,100501.95
2022-11-15T06:59:12.120Z,100507.64
2022-11-15T07:02:02.633Z,100497.42
2022-11-15T07:04:52.866Z,100498.68
2022-11-15T07:07:43.446Z,100498.33
2022-11-15T07:10:33.928Z,100499.96
2022-11-15T07:13:27.975Z,100498.53
2022-11-15T07:16:18.724Z,100497.80
2022-11-15T07:19:10.370Z,100499.94
2022-11-15T07:22:01.333Z,100496.00
2022-11-15T07:24:51.842Z,100496.71
2022-11-15T07:27:42.303Z,100501.73
2022-11-15T07:30:32.588Z,100498.15
2022-11-15T07:33:23.338Z,100500.29
2022-11-15T07:36:13.780Z,100507.47
2022-11-15T07:39:04.654Z,100508.53
2022-11-15T07:42:15.387Z,100500.28
2022-11-15T07:45:06.704Z,100500.63
2022-11-15T07:47:57.862Z,100497.05
2022-11-15T07:50:48.232Z,100489.67
2022-11-15T07:53:38.440Z,100480.85
2022-11-15T07:56:29.056Z,100490.17
2022-11-15T07:59:20.426Z,100490.52
2022-11-15T08:02:12.823Z,100489.95
2022-11-15T08:05:02.949Z,100488.14
2022-11-15T08:07:53.072Z,100488.11
2022-11-15T08:10:43.455Z,100488.36
2022-11-15T08:13:34.547Z,100486.75
2022-11-15T08:16:25.342Z,100482.29
2022-11-15T08:19:15.935Z,100473.83
2022-11-15T08:22:06.295Z,100471.23
2022-11-15T08:24:57.153Z,100470.88
2022-11-15T08:27:48.124Z,100473.91
2022-11-15T08:30:43.135Z,100474.79
2022-11-15T08:33:34.482Z,100473.52
2022-11-15T08:36:25.650Z,100462.55
2022-11-15T08:39:16.378Z,100458.05
2022-11-15T08:42:06.952Z,100455.55
2022-11-15T08:44:57.226Z,100457.86
2022-11-15T08:47:53.783Z,100453.48
2022-11-15T08:50:45.451Z,100450.98
2022-11-15T08:53:36.135Z,100446.80
2022-11-15T08:56:26.492Z,100446.67
2022-11-15T08:59:16.721Z,100447.77
2022-11-15T09:02:07.580Z,100447.63
2022-11-15T09:04:57.992Z,100442.28
2022-11-15T09:07:48.502Z,100436.66
2022-11-15T09:10:39.176Z,100441.66
2022-11-15T09:13:29.863Z,100435.35
2022-11-15T09:16:21.481Z,100436.54
2022-11-15T09:19:12.176Z,100436.43
2022-11-15T09:22:03.629Z,100436.39
2022-11-15T09:24:54.306Z,100440.23
2022-11-15T09:27:45.259Z,100445.33
2022-11-15T09:30:36.950Z,100438.83
2022-11-15T09:33:27.511Z,100439.17
2022-11-15T09:36:18.161Z,100434.59
2022-11-15T09:39:08.434Z,100435.66
2022-11-15T09:42:22.878Z,100431.52
2022-11-15T09:45:22.507Z,100431.25
2022-11-15T09:48:42.807Z,100425.91
2022-11-15T09:51:36.709Z,100426.80
2022-11-15T09:54:52.359Z,100427.23
2022-11-15T09:57:22.763Z,100427.23
2022-11-15T10:00:30.664Z,100423.88
2022-11-15T10:03:15.419Z,100417.08
2022-11-15T10:05:49.132Z,100409.88
2022-11-15T10:08:38.159Z,100417.08
2022-11-15T10:14:12.490Z,100407.91
2022-11-15T10:17:04.376Z,100408.92
2022-11-15T10:19:41.980Z,100411.33
2022-11-15T10:22:32.023Z,100408.73
2022-11-15T10:25:20.494Z,100414.46
2022-11-15T10:27:57.750Z,100412.94
2022-11-15T10:30:37.351Z,100402.56
2022-11-15T10:33:25.761Z,100407.29
2022-11-15T10:36:18.023Z,100403.82
2022-11-15T10:38:58.348Z,100400.26
2022-11-15T10:41:40.747Z,100399.73
2022-11-15T10:44:19.853Z,100403.08
2022-11-15T10:47:05.997Z,100403.77
2022-11-15T10:49:38.268Z,100399.42
2022-11-15T10:52:20.709Z,100392.92
2022-11-15T10:54:55.474Z,100396.66
2022-11-15T10:57:31.757Z,100393.55
2022-11-15T11:00:06.479Z,100392.31
2022-11-15T11:02:42.981Z,100388.52
2022-11-15T11:08:27.740Z,100383.91
2022-11-15T11:11:03.576Z,100378.59
2022-11-15T11:13:38.053Z,100372.09
2022-11-15T11:16:39.107Z,100367.16
2022-11-15T11:19:25.221Z,100369.09
2022-11-15T11:22:02.757Z,100368.95
2022-11-15T11:24:43.698Z,100359.16
2022-11-15T11:27:32.227Z,100354.23
2022-11-15T11:30:11.421Z,100350.48
2022-11-15T11:33:07.401Z,100350.69
2022-11-15T11:35:48.672Z,100348.25
2022-11-15T11:38:34.708Z,100342.96
2022-11-15T11:41:18.506Z,100341.30
2022-11-15T11:44:03.899Z,100339.67
2022-11-15T11:46:49.547Z,100331.86
2022-11-15T11:49:27.294Z,100325.70
2022-11-15T11:52:05.289Z,100325.47
2022-11-15T11:54:47.908Z,100322.71
2022-11-15T11:57:31.295Z,100320.27
2022-11-15T12:00:15.056Z,100323.05
2022-11-15T12:02:53.177Z,100323.26
2022-11-15T12:05:31.096Z,100321.27
2022-11-15T12:08:20.566Z,100316.00
2022-11-15T12:10:59.913Z,100310.05
2022-11-15T12:13:37.730Z,100309.42
2022-11-15T12:16:17.182Z,100310.33
2022-11-15T12:18:53.585Z,100311.31
2022-11-15T12:21:41.900Z,100307.42
2022-11-15T12:24:18.732Z,100307.73
2022-11-15T12:26:54.910Z,100302.78
2022-11-15T12:29:35.350Z,100301.24
2022-11-15T12:32:17.136Z,100291.42
2022-11-15T12:34:51.375Z,100293.92
2022-11-15T12:37:58.600Z,100291.91
2022-11-15T12:40:40.025Z,100292.23
2022-11-15T12:43:45.032Z,100290.45
2022-11-15T12:46:24.760Z,100294.26
2022-11-15T12:48:59.037Z,100295.50
2022-11-15T12:52:06.117Z,100288.41
2022-11-15T12:55:12.128Z,100290.91
2022-11-15T12:57:45.544Z,100287.88
2022-11-15T13:00:49.601Z,100284.44
2022-11-15T13:03:25.273Z,100279.71
2022-11-15T13:06:05.566Z,100278.40
2022-11-15T13:08:53.573Z,100273.70
2022-11-15T13:11:52.842Z,100269.90
2022-11-15T13:14:55.422Z,100264.24
2022-11-15T13:17:40.767Z,100259.83
2022-11-15T13:20:30.715Z,100256.17
2022-11-15T13:23:12.453Z,100254.17
2022-11-15T13:26:13.134Z,100251.34
2022-11-15T13:28:50.662Z,100253.24
2022-11-15T13:31:30.477Z,100251.43
2022-11-15T13:34:22.920Z,100247.11
2022-11-15T13:36:58.225Z,100249.42
2022-11-15T13:39:35.117Z,100244.41
2022-11-15T13:42:16.478Z,100246.83
2022-11-15T13:45:00.397Z,100243.70
2022-11-15T13:47:33.006Z,100241.52
2022-11-15T13:50:12.102Z,100240.03
2022-11-15T13:52:49.876Z,100245.38
2022-11-15T13:55:24.340Z,100246.15
2022-11-15T13:57:58.782Z,100251.93
2022-11-15T14:00:37.581Z,100244.88
2022-11-15T14:03:20.695Z,100240.42
2022-11-15T14:06:08.939Z,100238.69
2022-11-15T14:08:42.054Z,100231.31
2022-11-15T14:11:18.434Z,100232.45
2022-11-15T14:14:13.903Z,100232.04
2022-11-15T14:16:47.572Z,100233.02
2022-11-15T14:19:40.497Z,100237.27
2022-11-15T14:22:23.201Z,100233.46
2022-11-15T14:25:19.976Z,100236.06
2022-11-15T14:28:30.539Z,100232.63
2022-11-15T14:31:09.437Z,100230.06
2022-11-15T14:33:41.979Z,100231.67
2022-11-15T14:36:19.136Z,100232.87
2022-11-15T14:38:51.330Z,100229.20
2022-11-15T14:41:26.096Z,100225.42
2022-11-15T14:43:59.334Z,100225.49
2022-11-15T14:46:31.156Z,100219.07
2022-11-15T14:49:02.968Z,100215.32
2022-11-15T14:51:35.099Z,100213.50
2022-11-15T14:54:07.033Z,100216.99
2022-11-15T14:56:38.755Z,100211.07
2022-11-15T14:59:10.455Z,100202.39
2022-11-15T15:01:43.421Z,100200.23
2022-11-15T15:04:15.380Z,100201.08
2022-11-15T15:06:47.671Z,100202.54
2022-11-15T15:09:19.996Z,100200.08
2022-11-15T15:11:51.945Z,100196.13
2022-11-15T15:14:24.373Z,100192.58
2022-11-15T15:16:56.746Z,100196.45
2022-11-15T15:19:28.813Z,100196.93
2022-11-15T15:22:01.076Z,100204.11
2022-11-15T15:24:32.838Z,100202.74
2022-11-15T15:27:04.673Z,100196.38
2022-11-15T15:29:36.374Z,100195.40
2022-11-15T15:32:08.180Z,100188.27
2022-11-15T15:34:40.313Z,100182.14
2022-11-15T15:37:24.982Z,100178.10
2022-11-15T15:39:58.422Z,100172.45
2022-11-15T15:42:30.244Z,100172.77
2022-11-15T15:45:01.993Z,100172.48
2022-11-15T15:47:33.667Z,100169.01
2022-11-15T15:50:14.195Z,100167.72
2022-11-15T15:52:45.921Z,100173.48
2022-11-15T15:55:18.127Z,100175.89
2022-11-15T15:57:50.085Z,100178.39
2022-11-15T16:00:24.472Z,100177.77
2022-11-15T16:02:56.705Z,100176.42
2022-11-15T16:05:29.119Z,100179.36
2022-11-15T16:08:01.351Z,100181.27
2022-11-15T16:10:37.955Z,100182.58
2022-11-15T16:13:09.921Z,100186.65
2022-11-15T16:15:41.857Z,100184.23
2022-11-15T16:18:18.866Z,100179.33
2022-11-15T16:20:55.636Z,100179.27
2022-11-15T16:23:27.743Z,100174.69
2022-11-15T16:25:59.766Z,100174.77
2022-11-15T16:28:34.319Z,100181.06
2022-11-15T16:31:10.239Z,100173.70
2022-11-15T16:33:42.474Z,100179.40
2022-11-15T16:36:28.489Z,100174.80
2022-11-15T16:39:04.852Z,100177.66
2022-11-15T16:41:36.602Z,100176.75
2022-11-15T16:44:08.901Z,100174.45
2022-11-15T16:46:43.183Z,100171.41
2022-11-15T16:49:16.837Z,100164.51
2022-11-15T16:51:50.751Z,100170.82
2022-11-15T16:54:22.421Z,100175.03
2022-11-15T16:56:54.652Z,100177.58
2022-11-15T16:59:26.382Z,100175.14
2022-11-15T17:01:58.116Z,100177.39
2022-11-15T17:04:33.869Z,100178.15
2022-11-15T17:07:05.597Z,100171.95
2022-11-15T17:09:37.295Z,100176.04
2022-11-15T17:12:09.510Z,100172.23
2022-11-15T17:14:41.217Z,100170.63
2022-11-15T17:17:13.645Z,100165.38
2022-11-15T17:19:45.356Z,100163.34
2022-11-15T17:22:17.218Z,100167.18
2022-11-15T17:24:49.698Z,100164.13
2022-11-15T17:27:21.933Z,100163.01
2022-11-15T17:29:53.930Z,100159.55
2022-11-15T17:32:25.677Z,100149.63
2022-11-15T17:34:57.562Z,100158.67
2022-11-15T17:37:29.771Z,100156.73
2022-11-15T17:40:01.774Z,100159.56
2022-11-15T17:42:34.446Z,100157.84
2022-11-15T17:45:10.107Z,100158.88
2022-11-15T17:47:42.610Z,100152.53
2022-11-15T17:50:14.377Z,100147.06
2022-11-15T17:52:46.790Z,100158.45
2022-11-15T17:55:18.776Z,100158.92
2022-11-15T17:57:50.411Z,100159.95
2022-11-15T18:00:22.910Z,100162.00
2022-11-15T18:02:54.848Z,100161.81
2022-11-15T18:05:25.807Z,100158.22
2022-11-15T18:07:57.553Z,100152.03
2022-11-15T18:10:29.191Z,100146.56
2022-11-15T18:13:00.885Z,100138.95
2022-11-15T18:15:33.307Z,100137.45
2022-11-15T18:18:03.836Z,100136.23
2022-11-15T18:20:35.533Z,100136.61
2022-11-15T18:23:07.355Z,100131.19
2022-11-15T18:25:39.568Z,100124.62
2022-11-15T18:28:11.337Z,100121.80
2022-11-15T18:30:43.111Z,100121.39
2022-11-15T18:33:14.921Z,100120.59
2022-11-15T18:35:47.020Z,100119.05
2022-11-15T18:38:19.117Z,100115.61
2022-11-15T18:40:50.800Z,100114.81
2022-11-15T18:43:22.563Z,100114.27
2022-11-15T18:45:54.229Z,100118.84
2022-11-15T18:48:26.143Z,100117.40
2022-11-15T18:51:05.367Z,100120.05
2022-11-15T18:53:38.317Z,100122.44
2022-11-15T18:56:09.725Z,100121.02
2022-11-15T18:58:43.689Z,100121.27
2022-11-15T19:01:17.682Z,100115.41
2022-11-15T19:03:51.009Z,100115.73
2022-11-15T19:06:24.390Z,100112.66
2022-11-15T19:08:58.998Z,100118.06
2022-11-15T19:11:33.144Z,100125.09
2022-11-15T19:14:06.787Z,100122.59
2022-11-15T19:16:40.366Z,100120.58
2022-11-15T19:19:15.508Z,100115.58
2022-11-15T19:21:47.826Z,100111.23
2022-11-15T19:24:20.061Z,100112.13
2022-11-15T19:26:52.132Z,100109.33
2022-11-15T19:29:24.074Z,100112.39
2022-11-15T19:31:56.088Z,100113.73
2022-11-15T19:34:29.151Z,100114.77
2022-11-15T19:37:03.434Z,100110.83
2022-11-15T19:39:39.797Z,100110.80
2022-11-15T19:42:13.018Z,100108.77
2022-11-15T19:44:44.962Z,100101.20
2022-11-15T19:47:16.986Z,100108.39
2022-11-15T19:49:49.355Z,100103.68
2022-11-15T19:52:24.233Z,100104.23
2022-11-15T19:54:56.639Z,100103.49
2022-11-15T19:57:28.626Z,100105.60
2022-11-15T20:00:06.747Z,100103.05
2022-11-15T20:02:39.357Z,100110.20
2022-11-15T20:05:15.632Z,100111.64
2022-11-15T20:07:52.367Z,100112.78
2022-11-15T20:10:25.399Z,100112.39
2022-11-15T20:12:59.858Z,100114.00
2022-11-15T20:15:32.490Z,100115.74
2022-11-15T20:18:06.094Z,100116.08
2022-11-15T20:20:38.230Z,100114.27
2022-11-15T20:23:11.097Z,100113.76
2022-11-15T20:25:46.751Z,100110.13
2022-11-15T20:28:23.579Z,100110.80
2022-11-15T20:30:57.527Z,100106.33
2022-11-15T20:33:30.007Z,100104.63
2022-11-15T20:36:04.054Z,100099.13
2022-11-15T20:38:36.258Z,100095.90
2022-11-15T20:41:09.056Z,100095.79
2022-11-15T20:43:43.882Z,100096.89
2022-11-15T20:46:16.931Z,100094.30
2022-11-15T20:48:48.742Z,100096.22
2022-11-15T20:51:21.987Z,100083.77
2022-11-15T20:53:54.151Z,100075.38
2022-11-15T20:56:26.927Z,100076.63
2022-11-15T20:58:59.225Z,100073.33
2022-11-15T21:01:32.053Z,100069.22
2022-11-15T21:04:04.717Z,100068.60
2022-11-15T21:06:37.020Z,100071.46
2022-11-15T21:09:27.143Z,100070.46
2022-11-15T21:12:14.383Z,100065.95
2022-11-15T21:14:49.067Z,100063.29
2022-11-15T21:17:21.165Z,100065.75
2022-11-15T21:19:53.740Z,100057.80
2022-11-15T21:22:25.629Z,100058.62
2022-11-15T21:24:59.396Z,100057.11
2022-11-15T21:27:31.553Z,100055.08
2022-11-15T21:30:03.573Z,100050.20
2022-11-15T21:32:35.454Z,100043.86
2022-11-15T21:35:08.477Z,100038.16
2022-11-15T21:37:40.234Z,100027.52
2022-11-15T21:40:14.446Z,100023.98
2022-11-15T21:42:46.276Z,100021.80
2022-11-15T21:45:18.280Z,100023.70
2022-11-15T21:47:49.952Z,100024.94
2022-11-15T21:50:21.687Z,100028.46
2022-11-15T21:52:53.485Z,100033.69
2022-11-15T21:55:25.324Z,100034.20
2022-11-15T21:57:57.050Z,100035.44
2022-11-15T22:00:46.905Z,100031.67
2022-11-15T22:03:18.949Z,100030.20
2022-11-15T22:05:51.101Z,100026.73
2022-11-15T22:08:23.945Z,100028.40
2022-11-15T22:10:55.089Z,100028.92
2022-11-15T22:13:27.914Z,100032.06
2022-11-15T22:16:00.731Z,100032.45
2022-11-15T22:18:33.595Z,100031.16
2022-11-15T22:21:08.039Z,100025.48
2022-11-15T22:23:41.216Z,100022.95
2022-11-15T22:26:18.369Z,100025.96
2022-11-15T22:28:54.456Z,100023.84
2022-11-15T22:31:26.864Z,100024.66
2022-11-15T22:33:59.084Z,100026.06
2022-11-15T22:36:46.918Z,100024.92
2022-11-15T22:39:23.498Z,100025.30
2022-11-15T22:41:55.642Z,100026.32
2022-11-15T22:44:27.906Z,100024.21
2022-11-15T22:47:00.121Z,100022.98
2022-11-15T22:49:32.285Z,100022.77
2022-11-15T22:52:04.472Z,100023.95
2022-11-15T22:54:36.622Z,100022.50
2022-11-15T22:57:09.061Z,100022.73
2022-11-15T22:59:42.520Z,100028.63
2022-11-15T23:02:14.730Z,100026.15
2022-11-15T23:04:47.807Z,100020.78
2022-11-15T23:07:22.828Z,100014.58
2022-11-15T23:10:17.617Z,100007.31
2022-11-15T23:13:08.130Z,100005.57
2022-11-15T23:16:00.167Z,100001.95
2022-11-15T23:18:34.161Z,100001.70
2022-11-15T23:21:13.599Z,100004.16
2022-11-15T23:23:48.427Z,100002.61
2022-11-15T23:26:21.035Z,100000.27
2022-11-15T23:28:51.978Z,100003.10
2022-11-15T23:31:47.671Z,100004.90
2022-11-15T23:34:33.217Z,100002.16
2022-11-15T23:37:18.574Z,99998.94
2022-11-15T23:39:50.769Z,99996.25
2022-11-15T23:42:23.447Z,99992.41
2022-11-15T23:44:54.164Z,99990.75
2022-11-15T23:47:26.394Z,99982.93
2022-11-15T23:49:58.669Z,99979.11
2022-11-15T23:52:31.937Z,99980.06
2022-11-15T23:55:04.160Z,99982.76
2022-11-15T23:57:36.518Z,99978.80
